sensor_id;sensor_type;location;lat;lon;timestamp;temperature;humidity
21559;DHT22;10940;48.890;8.240;2023-05-27T00:01:22;15.40;99.90
21559;DHT22;10940;48.890;8.240;2023-05-27T00:03:48;15.40;99.90
21559;DHT22;10940;48.890;8.240;2023-05-27T00:06:13;15.30;99.90
21559;DHT22;10940;48.890;8.240;2023-05-27T00:08:39;15.30;99.90
21559;DHT22;10940;48.890;8.240;2023-05-27T00:11:04;15.30;99.90
21559;DHT22;10940;48.890;8.240;2023-05-27T00:13:30;15.30;99.90
21559;DHT22;10940;48.890;8.240;2023-05-27T00:15:55;15.20;99.90
21559;DHT22;10940;48.890;8.240;2023-05-27T00:18:21;15.20;99.90
21559;DHT22;10940;48.890;8.240;2023-05-27T00:20:47;15.20;99.90
21559;DHT22;10940;48.890;8.240;2023-05-27T00:23:14;15.20;99.90
21559;DHT22;10940;48.890;8.240;2023-05-27T00:25:40;15.10;99.90
21559;DHT22;10940;48.890;8.240;2023-05-27T00:28:05;15.10;99.90
21559;DHT22;10940;48.890;8.240;2023-05-27T00:30:31;15.10;99.90
21559;DHT22;10940;48.890;8.240;2023-05-27T00:32:57;15.10;99.90
21559;DHT22;10940;48.890;8.240;2023-05-27T00:35:23;15.00;99.90
21559;DHT22;10940;48.890;8.240;2023-05-27T00:37:48;15.10;99.90
21559;DHT22;10940;48.890;8.240;2023-05-27T00:40:15;15.00;99.90
21559;DHT22;10940;48.890;8.240;2023-05-27T00:42:43;15.10;99.90
21559;DHT22;10940;48.890;8.240;2023-05-27T00:45:10;15.00;99.90
21559;DHT22;10940;48.890;8.240;2023-05-27T00:47:36;15.00;99.90
21559;DHT22;10940;48.890;8.240;2023-05-27T00:50:03;15.00;99.90
21559;DHT22;10940;48.890;8.240;2023-05-27T00:52:29;15.00;99.90
21559;DHT22;10940;48.890;8.240;2023-05-27T00:54:55;15.00;99.90
21559;DHT22;10940;48.890;8.240;2023-05-27T00:57:22;14.90;99.90
21559;DHT22;10940;48.890;8.240;2023-05-27T00:59:47;14.90;99.90
21559;DHT22;10940;48.890;8.240;2023-05-27T01:02:14;14.90;99.90
21559;DHT22;10940;48.890;8.240;2023-05-27T01:04:40;14.80;99.90
21559;DHT22;10940;48.890;8.240;2023-05-27T01:07:26;14.80;99.90
21559;DHT22;10940;48.890;8.240;2023-05-27T01:10:31;14.90;99.90
21559;DHT22;10940;48.890;8.240;2023-05-27T01:13:18;14.90;99.90
21559;DHT22;10940;48.890;8.240;2023-05-27T01:15:47;14.80;99.90
21559;DHT22;10940;48.890;8.240;2023-05-27T01:18:16;14.80;99.90
21559;DHT22;10940;48.890;8.240;2023-05-27T01:20:43;14.80;99.90
21559;DHT22;10940;48.890;8.240;2023-05-27T01:23:10;14.70;99.90
21559;DHT22;10940;48.890;8.240;2023-05-27T01:25:36;14.70;99.90
21559;DHT22;10940;48.890;8.240;2023-05-27T01:28:02;14.70;99.90
21559;DHT22;10940;48.890;8.240;2023-05-27T01:30:28;14.70;99.90
21559;DHT22;10940;48.890;8.240;2023-05-27T01:35:41;14.60;99.90
21559;DHT22;10940;48.890;8.240;2023-05-27T01:38:10;14.60;99.90
21559;DHT22;10940;48.890;8.240;2023-05-27T01:40:39;14.50;99.90
21559;DHT22;10940;48.890;8.240;2023-05-27T01:43:06;14.60;99.90
21559;DHT22;10940;48.890;8.240;2023-05-27T01:45:33;14.50;99.90
21559;DHT22;10940;48.890;8.240;2023-05-27T01:47:59;14.40;99.90
21559;DHT22;10940;48.890;8.240;2023-05-27T01:50:25;14.40;99.90
21559;DHT22;10940;48.890;8.240;2023-05-27T01:52:51;14.40;99.90
21559;DHT22;10940;48.890;8.240;2023-05-27T01:55:17;14.30;99.90
21559;DHT22;10940;48.890;8.240;2023-05-27T01:57:43;14.30;99.90
21559;DHT22;10940;48.890;8.240;2023-05-27T02:00:09;14.30;99.90
21559;DHT22;10940;48.890;8.240;2023-05-27T02:02:35;14.30;99.90
21559;DHT22;10940;48.890;8.240;2023-05-27T02:05:02;14.30;99.90
21559;DHT22;10940;48.890;8.240;2023-05-27T02:07:27;14.30;99.90
21559;DHT22;10940;48.890;8.240;2023-05-27T02:09:53;14.30;99.90
21559;DHT22;10940;48.890;8.240;2023-05-27T02:12:19;14.30;99.90
21559;DHT22;10940;48.890;8.240;2023-05-27T02:14:45;14.20;99.90
21559;DHT22;10940;48.890;8.240;2023-05-27T02:17:11;14.20;99.90
21559;DHT22;10940;48.890;8.240;2023-05-27T02:19:37;14.10;99.90
21559;DHT22;10940;48.890;8.240;2023-05-27T02:22:03;14.00;99.90
21559;DHT22;10940;48.890;8.240;2023-05-27T02:24:28;14.00;99.90
21559;DHT22;10940;48.890;8.240;2023-05-27T02:26:54;14.00;99.90
21559;DHT22;10940;48.890;8.240;2023-05-27T02:29:19;14.00;99.90
21559;DHT22;10940;48.890;8.240;2023-05-27T02:31:45;13.90;99.90
21559;DHT22;10940;48.890;8.240;2023-05-27T02:34:11;13.90;99.90
21559;DHT22;10940;48.890;8.240;2023-05-27T02:36:36;13.80;99.90
21559;DHT22;10940;48.890;8.240;2023-05-27T02:39:02;13.90;99.90
21559;DHT22;10940;48.890;8.240;2023-05-27T02:41:28;13.70;99.90
21559;DHT22;10940;48.890;8.240;2023-05-27T02:43:54;13.70;99.90
21559;DHT22;10940;48.890;8.240;2023-05-27T02:46:20;13.70;99.90
21559;DHT22;10940;48.890;8.240;2023-05-27T02:48:46;13.70;99.90
21559;DHT22;10940;48.890;8.240;2023-05-27T02:51:12;13.70;99.90
21559;DHT22;10940;48.890;8.240;2023-05-27T02:53:38;13.60;99.90
21559;DHT22;10940;48.890;8.240;2023-05-27T02:56:04;13.60;99.90
21559;DHT22;10940;48.890;8.240;2023-05-27T02:58:29;13.60;99.90
21559;DHT22;10940;48.890;8.240;2023-05-27T03:00:55;13.50;99.90
21559;DHT22;10940;48.890;8.240;2023-05-27T03:03:21;13.50;99.90
21559;DHT22;10940;48.890;8.240;2023-05-27T03:05:46;13.50;99.90
21559;DHT22;10940;48.890;8.240;2023-05-27T03:08:12;13.40;99.90
21559;DHT22;10940;48.890;8.240;2023-05-27T03:10:38;13.40;99.90
21559;DHT22;10940;48.890;8.240;2023-05-27T03:13:04;13.40;99.90
21559;DHT22;10940;48.890;8.240;2023-05-27T03:15:29;13.40;99.90
21559;DHT22;10940;48.890;8.240;2023-05-27T03:17:57;13.30;99.90
21559;DHT22;10940;48.890;8.240;2023-05-27T03:20:22;13.30;99.90
21559;DHT22;10940;48.890;8.240;2023-05-27T03:22:48;13.30;99.90
21559;DHT22;10940;48.890;8.240;2023-05-27T03:25:14;13.20;99.90
21559;DHT22;10940;48.890;8.240;2023-05-27T03:27:40;13.20;99.90
21559;DHT22;10940;48.890;8.240;2023-05-27T03:30:07;13.30;99.90
21559;DHT22;10940;48.890;8.240;2023-05-27T03:32:33;13.20;99.90
21559;DHT22;10940;48.890;8.240;2023-05-27T03:34:59;13.20;99.90
21559;DHT22;10940;48.890;8.240;2023-05-27T03:37:25;13.20;99.90
21559;DHT22;10940;48.890;8.240;2023-05-27T03:39:51;13.10;99.90
21559;DHT22;10940;48.890;8.240;2023-05-27T03:42:17;13.20;99.90
21559;DHT22;10940;48.890;8.240;2023-05-27T03:44:43;13.20;99.90
21559;DHT22;10940;48.890;8.240;2023-05-27T03:47:08;13.20;99.90
21559;DHT22;10940;48.890;8.240;2023-05-27T03:49:34;13.20;99.90
21559;DHT22;10940;48.890;8.240;2023-05-27T03:51:59;13.10;99.90
21559;DHT22;10940;48.890;8.240;2023-05-27T03:54:25;13.10;99.90
21559;DHT22;10940;48.890;8.240;2023-05-27T03:56:51;13.10;99.90
21559;DHT22;10940;48.890;8.240;2023-05-27T03:59:16;13.10;99.90
21559;DHT22;10940;48.890;8.240;2023-05-27T04:01:46;13.10;99.90
21559;DHT22;10940;48.890;8.240;2023-05-27T04:04:13;13.10;99.90
21559;DHT22;10940;48.890;8.240;2023-05-27T04:06:38;13.00;99.90
21559;DHT22;10940;48.890;8.240;2023-05-27T04:09:04;13.00;99.90
21559;DHT22;10940;48.890;8.240;2023-05-27T04:11:30;13.00;99.90
21559;DHT22;10940;48.890;8.240;2023-05-27T04:13:56;13.00;99.90
21559;DHT22;10940;48.890;8.240;2023-05-27T04:16:23;13.10;99.90
21559;DHT22;10940;48.890;8.240;2023-05-27T04:18:50;13.00;99.90
21559;DHT22;10940;48.890;8.240;2023-05-27T04:21:19;13.00;99.90
21559;DHT22;10940;48.890;8.240;2023-05-27T04:23:45;13.00;99.90
21559;DHT22;10940;48.890;8.240;2023-05-27T04:26:10;13.00;99.90
21559;DHT22;10940;48.890;8.240;2023-05-27T04:28:37;13.10;99.90
21559;DHT22;10940;48.890;8.240;2023-05-27T04:31:05;13.10;99.90
21559;DHT22;10940;48.890;8.240;2023-05-27T04:33:31;13.10;99.90
21559;DHT22;10940;48.890;8.240;2023-05-27T04:35:56;13.10;99.90
21559;DHT22;10940;48.890;8.240;2023-05-27T04:38:22;13.10;99.90
21559;DHT22;10940;48.890;8.240;2023-05-27T04:40:51;13.10;99.90
21559;DHT22;10940;48.890;8.240;2023-05-27T04:43:18;13.20;99.90
21559;DHT22;10940;48.890;8.240;2023-05-27T04:45:45;13.20;99.90
21559;DHT22;10940;48.890;8.240;2023-05-27T04:48:11;13.20;99.90
21559;DHT22;10940;48.890;8.240;2023-05-27T04:50:36;13.30;99.90
21559;DHT22;10940;48.890;8.240;2023-05-27T04:53:02;13.30;99.90
21559;DHT22;10940;48.890;8.240;2023-05-27T04:55:28;13.30;99.90
21559;DHT22;10940;48.890;8.240;2023-05-27T04:57:53;13.40;99.90
21559;DHT22;10940;48.890;8.240;2023-05-27T05:00:21;13.30;99.90
21559;DHT22;10940;48.890;8.240;2023-05-27T05:03:06;13.30;99.90
21559;DHT22;10940;48.890;8.240;2023-05-27T05:05:32;13.40;99.90
21559;DHT22;10940;48.890;8.240;2023-05-27T05:07:58;13.40;99.90
21559;DHT22;10940;48.890;8.240;2023-05-27T05:10:24;13.40;99.90
21559;DHT22;10940;48.890;8.240;2023-05-27T05:12:50;13.50;99.90
21559;DHT22;10940;48.890;8.240;2023-05-27T05:15:16;13.50;99.90
21559;DHT22;10940;48.890;8.240;2023-05-27T05:17:42;13.50;99.90
21559;DHT22;10940;48.890;8.240;2023-05-27T05:20:08;13.60;99.90
21559;DHT22;10940;48.890;8.240;2023-05-27T05:22:34;13.60;99.90
21559;DHT22;10940;48.890;8.240;2023-05-27T05:25:00;13.70;99.90
21559;DHT22;10940;48.890;8.240;2023-05-27T05:27:27;13.70;99.90
21559;DHT22;10940;48.890;8.240;2023-05-27T05:29:53;13.80;99.90
21559;DHT22;10940;48.890;8.240;2023-05-27T05:32:19;13.80;99.90
21559;DHT22;10940;48.890;8.240;2023-05-27T05:34:44;13.80;99.90
21559;DHT22;10940;48.890;8.240;2023-05-27T05:37:10;13.90;99.90
21559;DHT22;10940;48.890;8.240;2023-05-27T05:39:41;14.00;99.90
21559;DHT22;10940;48.890;8.240;2023-05-27T05:42:07;14.00;99.90
21559;DHT22;10940;48.890;8.240;2023-05-27T05:44:32;14.10;99.90
21559;DHT22;10940;48.890;8.240;2023-05-27T05:46:59;14.20;99.90
21559;DHT22;10940;48.890;8.240;2023-05-27T05:49:25;14.20;99.90
21559;DHT22;10940;48.890;8.240;2023-05-27T05:51:51;14.30;99.90
21559;DHT22;10940;48.890;8.240;2023-05-27T05:54:16;14.30;99.90
21559;DHT22;10940;48.890;8.240;2023-05-27T05:56:42;14.30;99.90
21559;DHT22;10940;48.890;8.240;2023-05-27T05:59:07;14.40;99.90
21559;DHT22;10940;48.890;8.240;2023-05-27T06:01:33;14.50;99.90
21559;DHT22;10940;48.890;8.240;2023-05-27T06:03:59;14.50;99.90
21559;DHT22;10940;48.890;8.240;2023-05-27T06:06:29;14.50;99.90
21559;DHT22;10940;48.890;8.240;2023-05-27T06:08:55;14.50;99.90
21559;DHT22;10940;48.890;8.240;2023-05-27T06:11:21;14.60;99.90
21559;DHT22;10940;48.890;8.240;2023-05-27T06:13:47;14.60;99.90
21559;DHT22;10940;48.890;8.240;2023-05-27T06:16:13;14.80;99.90
21559;DHT22;10940;48.890;8.240;2023-05-27T06:18:38;14.90;99.90
21559;DHT22;10940;48.890;8.240;2023-05-27T06:21:04;14.90;99.90
21559;DHT22;10940;48.890;8.240;2023-05-27T06:23:29;15.00;99.90
21559;DHT22;10940;48.890;8.240;2023-05-27T06:25:55;15.10;99.90
21559;DHT22;10940;48.890;8.240;2023-05-27T06:28:21;15.10;99.90
21559;DHT22;10940;48.890;8.240;2023-05-27T06:30:47;15.20;99.90
21559;DHT22;10940;48.890;8.240;2023-05-27T06:33:12;15.20;99.90
21559;DHT22;10940;48.890;8.240;2023-05-27T06:35:38;15.40;99.90
21559;DHT22;10940;48.890;8.240;2023-05-27T06:38:04;15.40;99.90
21559;DHT22;10940;48.890;8.240;2023-05-27T06:40:30;15.50;99.90
21559;DHT22;10940;48.890;8.240;2023-05-27T06:42:56;15.50;99.90
21559;DHT22;10940;48.890;8.240;2023-05-27T06:45:21;15.60;99.90
21559;DHT22;10940;48.890;8.240;2023-05-27T06:47:47;15.60;99.90
21559;DHT22;10940;48.890;8.240;2023-05-27T06:50:13;15.60;99.90
21559;DHT22;10940;48.890;8.240;2023-05-27T06:52:38;15.70;99.90
21559;DHT22;10940;48.890;8.240;2023-05-27T06:55:04;15.80;99.90
21559;DHT22;10940;48.890;8.240;2023-05-27T06:57:30;15.90;99.90
21559;DHT22;10940;48.890;8.240;2023-05-27T06:59:56;16.00;99.90
21559;DHT22;10940;48.890;8.240;2023-05-27T07:02:21;16.10;99.90
21559;DHT22;10940;48.890;8.240;2023-05-27T07:04:47;16.20;99.90
21559;DHT22;10940;48.890;8.240;2023-05-27T07:07:13;16.30;99.90
21559;DHT22;10940;48.890;8.240;2023-05-27T07:09:38;16.40;99.90
21559;DHT22;10940;48.890;8.240;2023-05-27T07:12:04;16.40;99.90
21559;DHT22;10940;48.890;8.240;2023-05-27T07:14:31;16.50;99.90
21559;DHT22;10940;48.890;8.240;2023-05-27T07:16:57;16.60;99.90
21559;DHT22;10940;48.890;8.240;2023-05-27T07:19:22;16.70;99.90
21559;DHT22;10940;48.890;8.240;2023-05-27T07:21:48;16.80;99.90
21559;DHT22;10940;48.890;8.240;2023-05-27T07:24:14;17.00;99.90
21559;DHT22;10940;48.890;8.240;2023-05-27T07:26:39;17.10;99.90
21559;DHT22;10940;48.890;8.240;2023-05-27T07:29:05;17.10;99.90
21559;DHT22;10940;48.890;8.240;2023-05-27T07:31:31;17.20;99.90
21559;DHT22;10940;48.890;8.240;2023-05-27T07:33:56;17.30;99.90
21559;DHT22;10940;48.890;8.240;2023-05-27T07:36:22;17.20;99.90
21559;DHT22;10940;48.890;8.240;2023-05-27T07:38:47;17.40;99.90
21559;DHT22;10940;48.890;8.240;2023-05-27T07:41:13;17.40;99.90
21559;DHT22;10940;48.890;8.240;2023-05-27T07:43:39;17.50;99.90
21559;DHT22;10940;48.890;8.240;2023-05-27T07:46:05;17.50;99.90
21559;DHT22;10940;48.890;8.240;2023-05-27T07:48:30;17.60;99.90
21559;DHT22;10940;48.890;8.240;2023-05-27T07:50:56;17.60;99.90
21559;DHT22;10940;48.890;8.240;2023-05-27T07:53:22;17.70;99.90
21559;DHT22;10940;48.890;8.240;2023-05-27T07:55:47;17.80;99.90
21559;DHT22;10940;48.890;8.240;2023-05-27T07:58:13;17.90;99.90
21559;DHT22;10940;48.890;8.240;2023-05-27T08:00:39;18.00;99.90
21559;DHT22;10940;48.890;8.240;2023-05-27T08:03:04;18.00;99.90
21559;DHT22;10940;48.890;8.240;2023-05-27T08:05:30;18.00;99.90
21559;DHT22;10940;48.890;8.240;2023-05-27T08:07:56;18.20;99.90
21559;DHT22;10940;48.890;8.240;2023-05-27T08:10:22;18.20;99.90
21559;DHT22;10940;48.890;8.240;2023-05-27T08:12:47;18.20;99.90
21559;DHT22;10940;48.890;8.240;2023-05-27T08:15:13;18.30;99.90
21559;DHT22;10940;48.890;8.240;2023-05-27T08:17:39;18.40;99.90
21559;DHT22;10940;48.890;8.240;2023-05-27T08:20:05;18.50;99.90
21559;DHT22;10940;48.890;8.240;2023-05-27T08:22:31;18.70;99.90
21559;DHT22;10940;48.890;8.240;2023-05-27T08:24:57;18.70;99.90
21559;DHT22;10940;48.890;8.240;2023-05-27T08:27:42;18.80;99.90
21559;DHT22;10940;48.890;8.240;2023-05-27T08:30:09;18.90;99.90
21559;DHT22;10940;48.890;8.240;2023-05-27T08:32:35;19.00;99.90
21559;DHT22;10940;48.890;8.240;2023-05-27T08:35:01;19.00;99.90
21559;DHT22;10940;48.890;8.240;2023-05-27T08:37:26;19.10;99.90
21559;DHT22;10940;48.890;8.240;2023-05-27T08:39:52;19.20;99.90
21559;DHT22;10940;48.890;8.240;2023-05-27T08:42:19;19.30;99.90
21559;DHT22;10940;48.890;8.240;2023-05-27T08:44:45;19.40;99.90
21559;DHT22;10940;48.890;8.240;2023-05-27T08:47:11;19.50;99.90
21559;DHT22;10940;48.890;8.240;2023-05-27T08:49:37;19.60;99.90
21559;DHT22;10940;48.890;8.240;2023-05-27T08:52:03;19.70;99.90
21559;DHT22;10940;48.890;8.240;2023-05-27T08:54:32;19.80;99.90
21559;DHT22;10940;48.890;8.240;2023-05-27T08:57:00;19.80;99.90
21559;DHT22;10940;48.890;8.240;2023-05-27T08:59:26;19.90;99.90
21559;DHT22;10940;48.890;8.240;2023-05-27T09:01:55;20.00;99.90
21559;DHT22;10940;48.890;8.240;2023-05-27T09:04:21;20.00;99.90
21559;DHT22;10940;48.890;8.240;2023-05-27T09:06:47;20.10;99.90
21559;DHT22;10940;48.890;8.240;2023-05-27T09:09:12;20.10;99.90
21559;DHT22;10940;48.890;8.240;2023-05-27T09:11:41;20.20;99.90
21559;DHT22;10940;48.890;8.240;2023-05-27T09:14:07;20.30;99.90
21559;DHT22;10940;48.890;8.240;2023-05-27T09:16:33;20.30;99.90
21559;DHT22;10940;48.890;8.240;2023-05-27T09:18:59;20.40;99.90
21559;DHT22;10940;48.890;8.240;2023-05-27T09:21:25;20.40;99.90
21559;DHT22;10940;48.890;8.240;2023-05-27T09:23:55;20.50;99.90
21559;DHT22;10940;48.890;8.240;2023-05-27T09:26:22;20.60;99.90
21559;DHT22;10940;48.890;8.240;2023-05-27T09:28:48;20.70;99.90
21559;DHT22;10940;48.890;8.240;2023-05-27T09:31:14;20.70;99.90
21559;DHT22;10940;48.890;8.240;2023-05-27T09:33:40;20.90;99.90
21559;DHT22;10940;48.890;8.240;2023-05-27T09:36:07;20.80;99.90
21559;DHT22;10940;48.890;8.240;2023-05-27T09:38:35;20.80;99.90
21559;DHT22;10940;48.890;8.240;2023-05-27T09:41:02;21.00;99.90
21559;DHT22;10940;48.890;8.240;2023-05-27T09:43:29;21.10;99.90
21559;DHT22;10940;48.890;8.240;2023-05-27T09:46:07;21.10;99.90
21559;DHT22;10940;48.890;8.240;2023-05-27T09:48:35;21.20;99.90
21559;DHT22;10940;48.890;8.240;2023-05-27T09:51:03;21.20;99.90
21559;DHT22;10940;48.890;8.240;2023-05-27T09:53:29;21.40;99.90
21559;DHT22;10940;48.890;8.240;2023-05-27T09:55:56;21.50;99.90
21559;DHT22;10940;48.890;8.240;2023-05-27T09:58:23;21.60;99.90
21559;DHT22;10940;48.890;8.240;2023-05-27T10:00:50;21.60;99.90
21559;DHT22;10940;48.890;8.240;2023-05-27T10:03:22;21.70;99.90
21559;DHT22;10940;48.890;8.240;2023-05-27T10:05:53;21.80;99.90
21559;DHT22;10940;48.890;8.240;2023-05-27T10:08:21;21.90;99.90
21559;DHT22;10940;48.890;8.240;2023-05-27T10:10:47;22.00;99.90
21559;DHT22;10940;48.890;8.240;2023-05-27T10:13:15;22.10;99.90
21559;DHT22;10940;48.890;8.240;2023-05-27T10:15:46;22.00;99.90
21559;DHT22;10940;48.890;8.240;2023-05-27T10:18:30;22.10;99.90
21559;DHT22;10940;48.890;8.240;2023-05-27T10:21:00;22.20;99.90
21559;DHT22;10940;48.890;8.240;2023-05-27T10:23:28;22.30;99.90
21559;DHT22;10940;48.890;8.240;2023-05-27T10:26:01;22.40;99.90
21559;DHT22;10940;48.890;8.240;2023-05-27T10:28:32;22.40;99.90
21559;DHT22;10940;48.890;8.240;2023-05-27T10:31:17;22.40;99.90
21559;DHT22;10940;48.890;8.240;2023-05-27T10:33:45;22.50;99.90
21559;DHT22;10940;48.890;8.240;2023-05-27T10:36:14;22.50;99.90
21559;DHT22;10940;48.890;8.240;2023-05-27T10:38:41;22.60;99.90
21559;DHT22;10940;48.890;8.240;2023-05-27T10:41:08;22.70;99.90
21559;DHT22;10940;48.890;8.240;2023-05-27T10:43:35;22.80;99.90
21559;DHT22;10940;48.890;8.240;2023-05-27T10:46:08;22.90;99.90
21559;DHT22;10940;48.890;8.240;2023-05-27T10:48:34;23.00;99.90
21559;DHT22;10940;48.890;8.240;2023-05-27T10:51:00;23.10;99.90
21559;DHT22;10940;48.890;8.240;2023-05-27T10:53:27;23.20;99.90
21559;DHT22;10940;48.890;8.240;2023-05-27T10:55:53;23.30;99.90
21559;DHT22;10940;48.890;8.240;2023-05-27T10:58:20;23.50;99.90
21559;DHT22;10940;48.890;8.240;2023-05-27T11:00:49;23.50;99.90
21559;DHT22;10940;48.890;8.240;2023-05-27T11:03:26;23.60;99.90
21559;DHT22;10940;48.890;8.240;2023-05-27T11:06:03;23.70;99.90
21559;DHT22;10940;48.890;8.240;2023-05-27T11:08:32;23.90;99.90
21559;DHT22;10940;48.890;8.240;2023-05-27T11:11:03;24.10;99.90
21559;DHT22;10940;48.890;8.240;2023-05-27T11:13:33;24.20;99.90
21559;DHT22;10940;48.890;8.240;2023-05-27T11:16:02;24.40;99.90
21559;DHT22;10940;48.890;8.240;2023-05-27T11:18:39;24.40;99.90
21559;DHT22;10940;48.890;8.240;2023-05-27T11:21:06;24.40;99.90
21559;DHT22;10940;48.890;8.240;2023-05-27T11:23:47;24.50;99.90
21559;DHT22;10940;48.890;8.240;2023-05-27T11:26:21;24.60;99.90
21559;DHT22;10940;48.890;8.240;2023-05-27T11:28:56;24.80;99.90
21559;DHT22;10940;48.890;8.240;2023-05-27T11:31:28;25.10;99.90
21559;DHT22;10940;48.890;8.240;2023-05-27T11:33:54;25.20;99.90
21559;DHT22;10940;48.890;8.240;2023-05-27T11:36:20;25.30;99.20
21559;DHT22;10940;48.890;8.240;2023-05-27T11:38:50;25.30;99.70
21559;DHT22;10940;48.890;8.240;2023-05-27T11:41:17;25.30;99.90
21559;DHT22;10940;48.890;8.240;2023-05-27T11:43:47;25.30;98.70
21559;DHT22;10940;48.890;8.240;2023-05-27T11:46:13;25.30;99.70
21559;DHT22;10940;48.890;8.240;2023-05-27T11:48:39;25.30;99.30
21559;DHT22;10940;48.890;8.240;2023-05-27T11:51:04;25.30;99.90
21559;DHT22;10940;48.890;8.240;2023-05-27T11:53:30;25.30;98.90
21559;DHT22;10940;48.890;8.240;2023-05-27T11:55:56;25.10;99.40
21559;DHT22;10940;48.890;8.240;2023-05-27T11:58:21;25.20;99.90
21559;DHT22;10940;48.890;8.240;2023-05-27T12:00:47;25.10;98.30
21559;DHT22;10940;48.890;8.240;2023-05-27T12:03:13;25.00;98.60
21559;DHT22;10940;48.890;8.240;2023-05-27T12:05:38;24.90;99.30
21559;DHT22;10940;48.890;8.240;2023-05-27T12:08:04;25.00;99.50
21559;DHT22;10940;48.890;8.240;2023-05-27T12:10:30;25.10;99.60
21559;DHT22;10940;48.890;8.240;2023-05-27T12:13:05;25.30;99.10
21559;DHT22;10940;48.890;8.240;2023-05-27T12:15:31;25.40;98.00
21559;DHT22;10940;48.890;8.240;2023-05-27T12:17:57;25.40;99.90
21559;DHT22;10940;48.890;8.240;2023-05-27T12:20:23;25.50;98.20
21559;DHT22;10940;48.890;8.240;2023-05-27T12:22:53;25.70;99.20
21559;DHT22;10940;48.890;8.240;2023-05-27T12:25:19;25.80;97.70
21559;DHT22;10940;48.890;8.240;2023-05-27T12:27:45;25.80;96.70
21559;DHT22;10940;48.890;8.240;2023-05-27T12:30:11;25.70;99.20
21559;DHT22;10940;48.890;8.240;2023-05-27T12:32:37;25.50;98.00
21559;DHT22;10940;48.890;8.240;2023-05-27T12:35:04;25.40;97.10
21559;DHT22;10940;48.890;8.240;2023-05-27T12:37:30;25.30;97.30
21559;DHT22;10940;48.890;8.240;2023-05-27T12:39:56;25.30;98.10
21559;DHT22;10940;48.890;8.240;2023-05-27T12:42:21;25.40;98.40
21559;DHT22;10940;48.890;8.240;2023-05-27T12:44:48;25.50;98.10
21559;DHT22;10940;48.890;8.240;2023-05-27T12:47:13;25.50;97.90
21559;DHT22;10940;48.890;8.240;2023-05-27T12:49:39;25.40;98.20
21559;DHT22;10940;48.890;8.240;2023-05-27T12:52:05;25.50;98.20
21559;DHT22;10940;48.890;8.240;2023-05-27T12:54:30;25.60;97.00
21559;DHT22;10940;48.890;8.240;2023-05-27T12:56:56;25.60;96.40
21559;DHT22;10940;48.890;8.240;2023-05-27T12:59:22;25.60;96.50
21559;DHT22;10940;48.890;8.240;2023-05-27T13:01:47;25.40;97.00
21559;DHT22;10940;48.890;8.240;2023-05-27T13:04:13;25.40;97.80
21559;DHT22;10940;48.890;8.240;2023-05-27T13:06:38;25.60;96.70
21559;DHT22;10940;48.890;8.240;2023-05-27T13:09:04;25.80;96.30
21559;DHT22;10940;48.890;8.240;2023-05-27T13:11:30;25.90;96.70
21559;DHT22;10940;48.890;8.240;2023-05-27T13:13:56;26.00;95.90
21559;DHT22;10940;48.890;8.240;2023-05-27T13:16:21;26.00;96.40
21559;DHT22;10940;48.890;8.240;2023-05-27T13:18:47;26.10;96.20
21559;DHT22;10940;48.890;8.240;2023-05-27T13:21:13;26.10;95.80
21559;DHT22;10940;48.890;8.240;2023-05-27T13:23:39;26.20;97.20
21559;DHT22;10940;48.890;8.240;2023-05-27T13:26:05;26.20;96.20
21559;DHT22;10940;48.890;8.240;2023-05-27T13:28:31;26.10;95.90
21559;DHT22;10940;48.890;8.240;2023-05-27T13:30:57;26.00;97.90
21559;DHT22;10940;48.890;8.240;2023-05-27T13:33:22;26.10;97.70
21559;DHT22;10940;48.890;8.240;2023-05-27T13:35:48;26.00;95.20
21559;DHT22;10940;48.890;8.240;2023-05-27T13:38:14;25.80;95.50
21559;DHT22;10940;48.890;8.240;2023-05-27T13:40:41;25.70;95.30
21559;DHT22;10940;48.890;8.240;2023-05-27T13:43:07;25.70;96.00
21559;DHT22;10940;48.890;8.240;2023-05-27T13:45:33;25.70;95.40
21559;DHT22;10940;48.890;8.240;2023-05-27T13:47:58;25.80;96.60
21559;DHT22;10940;48.890;8.240;2023-05-27T13:50:24;25.90;95.90
21559;DHT22;10940;48.890;8.240;2023-05-27T13:52:50;26.00;95.40
21559;DHT22;10940;48.890;8.240;2023-05-27T13:55:16;25.90;94.50
21559;DHT22;10940;48.890;8.240;2023-05-27T13:57:41;25.60;95.10
21559;DHT22;10940;48.890;8.240;2023-05-27T14:00:09;25.60;95.30
21559;DHT22;10940;48.890;8.240;2023-05-27T14:02:34;25.70;96.50
21559;DHT22;10940;48.890;8.240;2023-05-27T14:05:00;25.70;95.50
21559;DHT22;10940;48.890;8.240;2023-05-27T14:07:28;25.60;96.70
21559;DHT22;10940;48.890;8.240;2023-05-27T14:09:53;25.60;95.00
21559;DHT22;10940;48.890;8.240;2023-05-27T14:12:19;25.40;95.20
21559;DHT22;10940;48.890;8.240;2023-05-27T14:14:45;25.40;94.80
21559;DHT22;10940;48.890;8.240;2023-05-27T14:17:10;25.50;98.90
21559;DHT22;10940;48.890;8.240;2023-05-27T14:19:36;25.60;96.80
21559;DHT22;10940;48.890;8.240;2023-05-27T14:22:02;25.80;95.60
21559;DHT22;10940;48.890;8.240;2023-05-27T14:24:27;26.00;94.80
21559;DHT22;10940;48.890;8.240;2023-05-27T14:26:53;26.10;93.80
21559;DHT22;10940;48.890;8.240;2023-05-27T14:29:18;26.10;94.10
21559;DHT22;10940;48.890;8.240;2023-05-27T14:31:44;25.90;93.60
21559;DHT22;10940;48.890;8.240;2023-05-27T14:34:10;25.80;93.80
21559;DHT22;10940;48.890;8.240;2023-05-27T14:36:35;25.80;93.50
21559;DHT22;10940;48.890;8.240;2023-05-27T14:39:01;25.80;94.90
21559;DHT22;10940;48.890;8.240;2023-05-27T14:41:31;25.80;93.10
21559;DHT22;10940;48.890;8.240;2023-05-27T14:43:57;25.80;94.60
21559;DHT22;10940;48.890;8.240;2023-05-27T14:46:22;25.80;93.80
21559;DHT22;10940;48.890;8.240;2023-05-27T14:48:48;25.70;93.20
21559;DHT22;10940;48.890;8.240;2023-05-27T14:51:14;25.70;93.60
21559;DHT22;10940;48.890;8.240;2023-05-27T14:53:39;25.70;93.70
21559;DHT22;10940;48.890;8.240;2023-05-27T14:56:05;25.70;92.80
21559;DHT22;10940;48.890;8.240;2023-05-27T14:58:31;25.50;92.90
21559;DHT22;10940;48.890;8.240;2023-05-27T15:00:56;25.50;94.00
21559;DHT22;10940;48.890;8.240;2023-05-27T15:03:22;25.50;93.00
21559;DHT22;10940;48.890;8.240;2023-05-27T15:05:47;25.60;93.50
21559;DHT22;10940;48.890;8.240;2023-05-27T15:08:13;25.50;94.30
21559;DHT22;10940;48.890;8.240;2023-05-27T15:10:42;25.60;92.70
21559;DHT22;10940;48.890;8.240;2023-05-27T15:13:09;25.60;93.10
21559;DHT22;10940;48.890;8.240;2023-05-27T15:15:35;25.50;91.80
21559;DHT22;10940;48.890;8.240;2023-05-27T15:18:04;25.50;92.80
21559;DHT22;10940;48.890;8.240;2023-05-27T15:20:31;25.50;92.90
21559;DHT22;10940;48.890;8.240;2023-05-27T15:22:56;25.50;94.50
21559;DHT22;10940;48.890;8.240;2023-05-27T15:25:22;25.50;92.80
21559;DHT22;10940;48.890;8.240;2023-05-27T15:27:48;25.40;93.60
21559;DHT22;10940;48.890;8.240;2023-05-27T15:30:14;25.40;93.10